Time;durP1;ratioP1;P1;durP2;ratioP2;P2;SDS_P1;SDS_P2;PMS_P1;PMS_P2;Temp;Humidity;BMP_temperature;BMP_pressure;BME280_temperature;BME280_humidity;BME280_pressure;Samples;Min_cycle;Max_cycle;Signal;HPM_P1;HPM_P2
2023/01/08 00:01:17;;;;;;;17.65;2.45;;;;;;;;;;5030866;28;20556;-74
2023/01/08 00:03:43;;;;;;;14.77;2.38;;;;;;;;;;5023482;28;20437;-74
2023/01/08 00:06:15;;;;;;;15.77;2.90;;;;;;;;;;5023286;28;20056;-74
2023/01/08 00:08:41;;;;;;;18.60;2.63;;;;;;;;;;5024323;28;20069;-74
2023/01/08 00:11:07;;;;;;;11.02;2.08;;;;;;;;;;5030274;28;20433;-74
2023/01/08 00:13:32;;;;;;;14.95;2.75;;;;;;;;;;5022605;28;20048;-73
2023/01/08 00:16:05;;;;;;;23.40;3.50;;;;;;;;;;5032089;28;20599;-73
2023/01/08 00:18:30;;;;;;;15.60;2.53;;;;;;;;;;5018899;28;20133;-74
2023/01/08 00:20:56;;;;;;;18.48;2.45;;;;;;;;;;5019777;28;20116;-73
2023/01/08 00:23:21;;;;;;;12.45;2.22;;;;;;;;;;5023156;28;20104;-73
2023/01/08 00:25:47;;;;;;;20.30;2.42;;;;;;;;;;5023239;28;20134;-74
2023/01/08 00:28:13;;;;;;;13.95;2.20;;;;;;;;;;5020882;28;20155;-74
2023/01/08 00:30:39;;;;;;;15.90;2.40;;;;;;;;;;5033991;28;20045;-74
2023/01/08 00:33:05;;;;;;;10.82;1.80;;;;;;;;;;5023092;28;20177;-73
2023/01/08 00:35:30;;;;;;;9.27;2.20;;;;;;;;;;5019527;28;20125;-74
2023/01/08 00:37:56;;;;;;;13.57;1.90;;;;;;;;;;5023367;28;20470;-74
2023/01/08 00:40:21;;;;;;;8.35;1.75;;;;;;;;;;5025726;28;20034;-73
2023/01/08 00:42:46;;;;;;;17.90;1.88;;;;;;;;;;5024097;28;20037;-74
2023/01/08 00:45:12;;;;;;;9.43;1.73;;;;;;;;;;5026498;28;20382;-73
2023/01/08 00:47:37;;;;;;;7.75;1.38;;;;;;;;;;5026632;28;20041;-74
2023/01/08 00:50:03;;;;;;;10.95;1.73;;;;;;;;;;5024572;28;20126;-73
2023/01/08 00:52:29;;;;;;;4.95;1.08;;;;;;;;;;5028359;28;20228;-73
2023/01/08 00:54:54;;;;;;;6.80;1.13;;;;;;;;;;5027544;28;20029;-73
2023/01/08 00:57:19;;;;;;;8.30;1.10;;;;;;;;;;5033489;28;20030;-73
2023/01/08 00:59:45;;;;;;;9.45;1.23;;;;;;;;;;5048260;28;20049;-74
2023/01/08 01:02:10;;;;;;;5.07;1.08;;;;;;;;;;5030206;28;20038;-73
2023/01/08 01:04:36;;;;;;;10.63;1.48;;;;;;;;;;5032945;28;20252;-73
2023/01/08 01:07:01;;;;;;;6.82;1.25;;;;;;;;;;5028767;28;20042;-73
2023/01/08 01:09:27;;;;;;;5.32;1.08;;;;;;;;;;5015603;28;20033;-74
2023/01/08 01:11:52;;;;;;;10.32;1.40;;;;;;;;;;5028174;28;20152;-73
2023/01/08 01:14:18;;;;;;;5.80;1.33;;;;;;;;;;5018729;28;20038;-74
2023/01/08 01:16:43;;;;;;;19.55;1.80;;;;;;;;;;5021122;28;20484;-73
2023/01/08 01:19:09;;;;;;;8.45;1.13;;;;;;;;;;5018246;28;20037;-73
2023/01/08 01:21:35;;;;;;;5.95;0.85;;;;;;;;;;5018883;28;20038;-74
2023/01/08 01:24:03;;;;;;;6.40;1.10;;;;;;;;;;5029010;28;20103;-73
2023/01/08 01:26:29;;;;;;;8.63;1.45;;;;;;;;;;5018395;28;20038;-74
2023/01/08 01:28:55;;;;;;;8.18;1.77;;;;;;;;;;5021892;28;20117;-74
2023/01/08 01:31:22;;;;;;;8.55;1.23;;;;;;;;;;5033128;28;20041;-75
2023/01/08 01:33:48;;;;;;;5.20;1.08;;;;;;;;;;5022346;28;20038;-73
2023/01/08 01:36:15;;;;;;;12.52;2.15;;;;;;;;;;5022766;28;20091;-73
2023/01/08 01:38:44;;;;;;;12.88;1.30;;;;;;;;;;5023980;28;20367;-73
2023/01/08 01:41:20;;;;;;;12.15;1.65;;;;;;;;;;5022682;28;20034;-74
2023/01/08 01:43:46;;;;;;;3.90;1.40;;;;;;;;;;5020454;28;20037;-74
2023/01/08 01:46:20;;;;;;;14.65;2.75;;;;;;;;;;5021086;28;20034;-74
2023/01/08 01:48:45;;;;;;;;;;;;;;;;;;5025286;28;20044;-74
2023/01/08 01:51:11;;;;;;;8.35;1.10;;;;;;;;;;5016826;28;19917;-74
2023/01/08 01:53:36;;;;;;;7.97;1.63;;;;;;;;;;5023940;28;20038;-74
2023/01/08 01:56:03;;;;;;;11.48;1.35;;;;;;;;;;5016383;28;20038;-74
2023/01/08 01:58:30;;;;;;;10.82;1.20;;;;;;;;;;5023274;28;20124;-74
2023/01/08 02:00:57;;;;;;;10.05;2.03;;;;;;;;;;5019109;28;20052;-74
2023/01/08 02:03:25;;;;;;;10.38;1.85;;;;;;;;;;5014748;28;20050;-74
2023/01/08 02:06:05;;;;;;;11.55;1.48;;;;;;;;;;5019667;28;20454;-74
2023/01/08 02:08:39;;;;;;;10.35;1.75;;;;;;;;;;5023584;28;20509;-74
2023/01/08 02:11:16;;;;;;;8.40;1.00;;;;;;;;;;5023641;28;20042;-74
2023/01/08 02:13:48;;;;;;;9.23;1.08;;;;;;;;;;5030285;28;20033;-74
2023/01/08 02:16:24;;;;;;;8.57;1.30;;;;;;;;;;5010510;28;20112;-74
2023/01/08 02:18:56;;;;;;;7.22;2.00;;;;;;;;;;5022457;28;20133;-75
2023/01/08 02:21:51;;;;;;;14.85;1.38;;;;;;;;;;5020150;28;20080;-74
2023/01/08 02:24:19;;;;;;;;;;;;;;;;;;5012234;28;20054;-74
2023/01/08 02:26:46;;;;;;;7.13;1.23;;;;;;;;;;5022473;28;20008;-74
2023/01/08 02:29:20;;;;;;;14.15;1.80;;;;;;;;;;5031257;28;20033;-74
2023/01/08 02:31:46;;;;;;;15.00;1.80;;;;;;;;;;5022888;28;20120;-74
2023/01/08 02:34:11;;;;;;;18.52;2.42;;;;;;;;;;5015698;28;20121;-74
2023/01/08 02:36:37;;;;;;;8.23;1.92;;;;;;;;;;5024852;28;20040;-75
2023/01/08 02:39:21;;;;;;;10.10;1.42;;;;;;;;;;5016225;28;20048;-74
2023/01/08 02:42:14;;;;;;;8.57;1.25;;;;;;;;;;5016503;28;20753;-74
2023/01/08 02:45:08;;;;;;;14.82;1.60;;;;;;;;;;5027184;28;20043;-74
2023/01/08 02:47:53;;;;;;;8.63;1.50;;;;;;;;;;5017652;28;20050;-75
2023/01/08 02:50:32;;;;;;;17.23;1.83;;;;;;;;;;5024703;28;20049;-74
2023/01/08 02:53:11;;;;;;;11.80;1.95;;;;;;;;;;5018318;28;20116;-74
2023/01/08 02:55:38;;;;;;;12.68;1.80;;;;;;;;;;5026475;28;20046;-74
2023/01/08 02:58:05;;;;;;;11.02;1.63;;;;;;;;;;5026337;28;20053;-74
2023/01/08 03:00:31;;;;;;;10.40;1.42;;;;;;;;;;5023487;28;20036;-74
2023/01/08 03:03:26;;;;;;;11.98;2.15;;;;;;;;;;5028905;28;20414;-74
2023/01/08 03:05:56;;;;;;;13.27;1.67;;;;;;;;;;5008073;28;20398;-74
2023/01/08 03:08:22;;;;;;;14.00;1.67;;;;;;;;;;5027679;28;20401;-74
2023/01/08 03:10:51;;;;;;;12.05;2.00;;;;;;;;;;5029036;28;20049;-74
2023/01/08 03:13:24;;;;;;;13.35;2.20;;;;;;;;;;5000092;28;20037;-74
2023/01/08 03:15:53;;;;;;;10.00;1.80;;;;;;;;;;5019986;28;20037;-74
2023/01/08 03:18:23;;;;;;;15.38;1.75;;;;;;;;;;5027457;28;20033;-74
2023/01/08 03:20:49;;;;;;;14.07;1.83;;;;;;;;;;5019491;28;20061;-74
2023/01/08 03:23:17;;;;;;;8.00;1.42;;;;;;;;;;5026524;28;20046;-74
2023/01/08 03:25:45;;;;;;;20.70;2.40;;;;;;;;;;5000830;28;20057;-74
2023/01/08 03:28:29;;;;;;;14.25;2.15;;;;;;;;;;5015384;28;20064;-74
2023/01/08 03:30:54;;;;;;;5.32;1.25;;;;;;;;;;5034710;28;20124;-74
2023/01/08 03:33:20;;;;;;;12.00;2.17;;;;;;;;;;5034880;28;20113;-74
2023/01/08 03:35:49;;;;;;;15.45;1.90;;;;;;;;;;5017140;28;20508;-74
2023/01/08 03:38:23;;;;;;;18.70;2.55;;;;;;;;;;5046647;28;20492;-74
2023/01/08 03:40:52;;;;;;;7.88;1.75;;;;;;;;;;5039306;28;20109;-74
2023/01/08 03:43:18;;;;;;;25.30;3.72;;;;;;;;;;5025834;28;20091;-74
2023/01/08 03:45:50;;;;;;;13.95;1.98;;;;;;;;;;5047002;28;20034;-74
2023/01/08 03:48:17;;;;;;;24.77;2.30;;;;;;;;;;5021043;28;20040;-74
2023/01/08 03:50:42;;;;;;;19.55;2.40;;;;;;;;;;5015959;28;20405;-74
2023/01/08 03:53:08;;;;;;;6.07;1.33;;;;;;;;;;5021933;28;20033;-74
2023/01/08 03:55:34;;;;;;;13.30;2.47;;;;;;;;;;5019238;28;20113;-74
2023/01/08 03:57:59;;;;;;;12.80;1.55;;;;;;;;;;5017216;28;20192;-74
2023/01/08 04:00:25;;;;;;;21.05;2.45;;;;;;;;;;5022953;28;20029;-74
2023/01/08 04:02:50;;;;;;;13.85;1.98;;;;;;;;;;5023584;28;20034;-74
2023/01/08 04:05:15;;;;;;;11.50;1.85;;;;;;;;;;5018399;28;20065;-74
2023/01/08 04:07:41;;;;;;;16.98;1.95;;;;;;;;;;5023145;28;20045;-74
2023/01/08 04:10:06;;;;;;;12.38;2.55;;;;;;;;;;5027838;28;20037;-74
2023/01/08 04:12:32;;;;;;;20.38;2.42;;;;;;;;;;5022897;28;20106;-74
2023/01/08 04:14:57;;;;;;;14.30;2.03;;;;;;;;;;5023452;28;20388;-74
2023/01/08 04:17:23;;;;;;;10.80;1.55;;;;;;;;;;5021625;28;20045;-74
2023/01/08 04:19:48;;;;;;;15.48;2.33;;;;;;;;;;5022198;28;20030;-74
2023/01/08 04:22:13;;;;;;;6.72;1.33;;;;;;;;;;5028125;28;20052;-74
2023/01/08 04:24:39;;;;;;;10.70;1.48;;;;;;;;;;5022905;28;20042;-75
2023/01/08 04:27:04;;;;;;;8.27;1.08;;;;;;;;;;5026101;28;20460;-75
2023/01/08 04:29:30;;;;;;;6.15;1.00;;;;;;;;;;5019883;28;20061;-74
2023/01/08 04:31:55;;;;;;;10.02;1.20;;;;;;;;;;5027876;28;20045;-74
2023/01/08 04:34:20;;;;;;;7.07;0.77;;;;;;;;;;5032293;28;20076;-74
2023/01/08 04:36:46;;;;;;;8.20;1.13;;;;;;;;;;5022387;28;20028;-75
2023/01/08 04:39:11;;;;;;;6.22;1.52;;;;;;;;;;5017260;28;20038;-74
2023/01/08 04:41:37;;;;;;;10.23;1.33;;;;;;;;;;5025165;28;20037;-74
2023/01/08 04:44:02;;;;;;;7.43;1.40;;;;;;;;;;5026277;28;20035;-74
2023/01/08 04:46:28;;;;;;;3.63;0.85;;;;;;;;;;5028580;28;20045;-74
2023/01/08 04:48:53;;;;;;;4.90;1.13;;;;;;;;;;5027218;28;20053;-74
2023/01/08 04:51:20;;;;;;;6.80;1.15;;;;;;;;;;5033041;28;20045;-74
2023/01/08 04:53:45;;;;;;;7.70;1.55;;;;;;;;;;5028099;28;20037;-74
2023/01/08 04:56:11;;;;;;;0.30;0.30;;;;;;;;;;5029877;28;20092;-74
2023/01/08 04:58:37;;;;;;;7.97;0.77;;;;;;;;;;5026569;28;20054;-74
2023/01/08 05:01:10;;;;;;;2.30;0.60;;;;;;;;;;5044812;28;20065;-74
2023/01/08 05:03:36;;;;;;;4.15;0.93;;;;;;;;;;5017980;28;20045;-74
2023/01/08 05:06:01;;;;;;;5.38;0.73;;;;;;;;;;5029850;28;20041;-74
2023/01/08 05:08:27;;;;;;;1.17;0.60;;;;;;;;;;5028938;28;20046;-74
2023/01/08 05:10:52;;;;;;;3.85;0.82;;;;;;;;;;5026203;28;20034;-74
2023/01/08 05:13:17;;;;;;;3.00;0.55;;;;;;;;;;5022381;28;20060;-74
2023/01/08 05:15:43;;;;;;;2.85;0.60;;;;;;;;;;5029754;28;20033;-74
2023/01/08 05:18:08;;;;;;;7.28;0.70;;;;;;;;;;5020590;28;20037;-74
2023/01/08 05:20:34;;;;;;;0.65;0.35;;;;;;;;;;5034223;28;20030;-74
2023/01/08 05:23:00;;;;;;;3.50;0.57;;;;;;;;;;5029890;28;20033;-74
2023/01/08 05:25:25;;;;;;;3.08;0.60;;;;;;;;;;5024325;28;20040;-74
2023/01/08 05:27:51;;;;;;;4.40;0.75;;;;;;;;;;5026939;28;20470;-74
2023/01/08 05:30:17;;;;;;;5.57;0.60;;;;;;;;;;5029880;28;20060;-74
2023/01/08 05:32:42;;;;;;;4.32;1.08;;;;;;;;;;5023863;28;20053;-74
2023/01/08 05:35:08;;;;;;;3.50;0.63;;;;;;;;;;5023088;28;20030;-74
2023/01/08 05:37:34;;;;;;;3.80;0.50;;;;;;;;;;5018741;28;20041;-75
2023/01/08 05:40:00;;;;;;;2.92;0.60;;;;;;;;;;5020829;28;20049;-74
2023/01/08 05:42:25;;;;;;;2.55;0.55;;;;;;;;;;5018327;28;20377;-74
2023/01/08 05:44:51;;;;;;;4.18;0.50;;;;;;;;;;5017306;28;20493;-74
2023/01/08 05:47:16;;;;;;;7.38;0.55;;;;;;;;;;5019908;28;20038;-74
2023/01/08 05:49:41;;;;;;;3.42;0.50;;;;;;;;;;5025220;28;20191;-74
2023/01/08 05:52:07;;;;;;;7.90;1.25;;;;;;;;;;5022459;28;20044;-74
2023/01/08 05:54:32;;;;;;;2.58;0.60;;;;;;;;;;5022788;28;20045;-74
2023/01/08 05:56:57;;;;;;;5.75;0.60;;;;;;;;;;5028856;28;20111;-74
2023/01/08 05:59:23;;;;;;;2.55;0.55;;;;;;;;;;5025178;28;20034;-74
2023/01/08 06:01:48;;;;;;;3.22;0.60;;;;;;;;;;5028950;28;20483;-75
2023/01/08 06:04:13;;;;;;;8.45;0.88;;;;;;;;;;5029525;28;20033;-74
2023/01/08 06:06:39;;;;;;;6.03;0.80;;;;;;;;;;5028626;28;20061;-74
2023/01/08 06:09:04;;;;;;;2.40;0.60;;;;;;;;;;5016528;28;20045;-73
2023/01/08 06:11:30;;;;;;;2.78;0.77;;;;;;;;;;5021057;28;20034;-73
2023/01/08 06:13:55;;;;;;;3.67;0.60;;;;;;;;;;5024344;28;20037;-74
2023/01/08 06:16:20;;;;;;;12.32;0.90;;;;;;;;;;5032724;28;20057;-74
2023/01/08 06:18:46;;;;;;;6.75;0.80;;;;;;;;;;5031541;28;20390;-74
2023/01/08 06:21:12;;;;;;;6.25;0.90;;;;;;;;;;5021450;28;20435;-74
2023/01/08 06:23:38;;;;;;;5.85;0.90;;;;;;;;;;5037000;28;20038;-75
2023/01/08 06:26:04;;;;;;;2.22;0.52;;;;;;;;;;5018591;28;20393;-74
2023/01/08 06:28:29;;;;;;;9.57;1.25;;;;;;;;;;5026208;28;20042;-73
2023/01/08 06:30:59;;;;;;;7.10;1.20;;;;;;;;;;5021605;28;20045;-74
2023/01/08 06:33:25;;;;;;;10.30;1.13;;;;;;;;;;5023974;28;20030;-74
2023/01/08 06:35:50;;;;;;;5.60;1.15;;;;;;;;;;5031408;28;20038;-75
2023/01/08 06:38:19;;;;;;;12.27;0.90;;;;;;;;;;5031267;28;20043;-74
2023/01/08 06:40:47;;;;;;;11.48;0.90;;;;;;;;;;5027193;28;20108;-74
2023/01/08 06:43:13;;;;;;;5.80;0.95;;;;;;;;;;5017382;28;20045;-74
2023/01/08 06:45:38;;;;;;;15.70;2.72;;;;;;;;;;5019075;28;20037;-75
2023/01/08 06:48:05;;;;;;;12.45;2.70;;;;;;;;;;5024288;28;20382;-74
2023/01/08 06:50:32;;;;;;;9.68;2.50;;;;;;;;;;5029983;28;20492;-74
2023/01/08 06:52:57;;;;;;;5.90;1.02;;;;;;;;;;5027803;28;20042;-74
2023/01/08 06:55:23;;;;;;;11.20;1.27;;;;;;;;;;5030114;28;20495;-74
2023/01/08 06:57:56;;;;;;;8.45;1.25;;;;;;;;;;5029666;28;20454;-74
2023/01/08 07:00:22;;;;;;;5.68;1.17;;;;;;;;;;5020016;28;20084;-74
2023/01/08 07:02:49;;;;;;;8.35;0.90;;;;;;;;;;5029851;28;20091;-74
2023/01/08 07:05:14;;;;;;;8.48;1.00;;;;;;;;;;5025943;28;20061;-74
2023/01/08 07:07:40;;;;;;;11.75;1.42;;;;;;;;;;5029469;28;20073;-74
2023/01/08 07:10:05;;;;;;;3.50;0.60;;;;;;;;;;5020800;28;20026;-74
2023/01/08 07:12:31;;;;;;;6.75;1.27;;;;;;;;;;5029744;28;20043;-74
2023/01/08 07:14:56;;;;;;;12.00;1.45;;;;;;;;;;5025777;28;20440;-74
2023/01/08 07:17:21;;;;;;;3.85;0.90;;;;;;;;;;5022182;28;20038;-73
2023/01/08 07:19:47;;;;;;;12.75;1.02;;;;;;;;;;5027471;28;20037;-74
2023/01/08 07:22:12;;;;;;;3.30;0.82;;;;;;;;;;5025997;28;20033;-74
2023/01/08 07:24:37;;;;;;;13.38;1.45;;;;;;;;;;5023557;28;20025;-74
2023/01/08 07:27:03;;;;;;;7.90;1.13;;;;;;;;;;5030865;28;20424;-74
2023/01/08 07:29:28;;;;;;;2.78;0.90;;;;;;;;;;5018123;28;20038;-74
2023/01/08 07:31:53;;;;;;;7.25;0.73;;;;;;;;;;5031586;28;20090;-74
2023/01/08 07:34:19;;;;;;;9.55;1.33;;;;;;;;;;5023212;28;20105;-74
2023/01/08 07:36:44;;;;;;;15.70;1.52;;;;;;;;;;5020605;28;20492;-74
2023/01/08 07:39:10;;;;;;;13.32;1.40;;;;;;;;;;5024643;28;20026;-74
2023/01/08 07:41:35;;;;;;;4.90;1.23;;;;;;;;;;5026222;28;20033;-74
2023/01/08 07:44:00;;;;;;;11.52;1.50;;;;;;;;;;5017027;28;20413;-74
2023/01/08 07:46:26;;;;;;;8.57;1.20;;;;;;;;;;5021301;28;20076;-74
2023/01/08 07:48:51;;;;;;;6.05;0.65;;;;;;;;;;5019150;28;20048;-75
2023/01/08 07:51:17;;;;;;;6.07;1.35;;;;;;;;;;5026061;28;20057;-73
2023/01/08 07:53:42;;;;;;;12.57;1.48;;;;;;;;;;5023318;28;20466;-74
2023/01/08 07:56:09;;;;;;;3.72;1.20;;;;;;;;;;5031578;28;20037;-74
2023/01/08 07:58:35;;;;;;;6.30;1.08;;;;;;;;;;5022905;28;20481;-74
2023/01/08 08:01:01;;;;;;;12.65;1.83;;;;;;;;;;5027389;28;20075;-73
2023/01/08 08:03:28;;;;;;;7.93;1.20;;;;;;;;;;5025054;28;20053;-74
2023/01/08 08:05:53;;;;;;;12.50;1.40;;;;;;;;;;5023010;28;20045;-74
2023/01/08 08:08:19;;;;;;;6.55;1.60;;;;;;;;;;5026367;28;20112;-73
2023/01/08 08:10:44;;;;;;;6.72;1.50;;;;;;;;;;5044547;28;20026;-74
2023/01/08 08:13:10;;;;;;;9.13;1.60;;;;;;;;;;5029745;28;20477;-74
2023/01/08 08:15:36;;;;;;;6.60;1.48;;;;;;;;;;5041575;28;20108;-74
2023/01/08 08:18:03;;;;;;;12.23;1.85;;;;;;;;;;5025142;28;20455;-74
2023/01/08 08:20:29;;;;;;;14.43;2.13;;;;;;;;;;5021550;28;20041;-73
2023/01/08 08:23:02;;;;;;;15.75;2.22;;;;;;;;;;5029649;28;20474;-74
2023/01/08 08:25:28;;;;;;;16.48;2.80;;;;;;;;;;5021429;28;20497;-74
2023/01/08 08:27:57;;;;;;;16.65;1.67;;;;;;;;;;5024667;28;20042;-74
2023/01/08 08:30:22;;;;;;;17.70;4.90;;;;;;;;;;5026205;28;20456;-73
2023/01/08 08:32:48;;;;;;;47.47;20.98;;;;;;;;;;5026584;28;20030;-74
2023/01/08 08:35:13;;;;;;;33.40;9.20;;;;;;;;;;5029560;28;20101;-74
2023/01/08 08:37:38;;;;;;;23.85;3.70;;;;;;;;;;5034097;28;20041;-74
2023/01/08 08:40:04;;;;;;;23.05;5.43;;;;;;;;;;5029437;28;20056;-73
2023/01/08 08:42:30;;;;;;;24.52;9.93;;;;;;;;;;5026908;28;20076;-75
2023/01/08 08:44:55;;;;;;;22.30;7.15;;;;;;;;;;5026236;28;20038;-74
2023/01/08 08:47:20;;;;;;;13.63;3.30;;;;;;;;;;5022866;28;20021;-73
2023/01/08 08:49:46;;;;;;;20.15;2.75;;;;;;;;;;5027032;28;20052;-74
2023/01/08 08:52:11;;;;;;;14.32;2.95;;;;;;;;;;5018496;28;20597;-74
2023/01/08 08:54:40;;;;;;;12.98;1.95;;;;;;;;;;5021723;28;20033;-74
2023/01/08 08:57:07;;;;;;;20.42;2.33;;;;;;;;;;5021955;28;20080;-74
2023/01/08 08:59:32;;;;;;;17.95;2.30;;;;;;;;;;5021405;28;20667;-74
2023/01/08 09:01:57;;;;;;;9.95;1.58;;;;;;;;;;5022832;28;20116;-74
2023/01/08 09:04:23;;;;;;;20.27;2.50;;;;;;;;;;5025757;28;20041;-74
2023/01/08 09:06:48;;;;;;;21.95;2.58;;;;;;;;;;5025604;28;20384;-74
2023/01/08 09:09:14;;;;;;;20.23;1.52;;;;;;;;;;5024439;28;20462;-74
2023/01/08 09:11:39;;;;;;;22.20;2.70;;;;;;;;;;5024958;28;20045;-75
2023/01/08 09:14:05;;;;;;;15.85;2.10;;;;;;;;;;5028410;28;20041;-74
2023/01/08 09:16:31;;;;;;;18.10;2.83;;;;;;;;;;5027487;28;20040;-74
2023/01/08 09:18:57;;;;;;;16.33;2.30;;;;;;;;;;5017209;28;20165;-74
2023/01/08 09:21:23;;;;;;;15.20;2.72;;;;;;;;;;5029023;28;20048;-74
2023/01/08 09:23:48;;;;;;;17.25;2.15;;;;;;;;;;5032466;28;20037;-75
2023/01/08 09:26:14;;;;;;;22.98;2.92;;;;;;;;;;5020867;28;20125;-74
2023/01/08 09:28:40;;;;;;;25.25;2.72;;;;;;;;;;5019399;28;20037;-74
2023/01/08 09:31:05;;;;;;;20.73;2.28;;;;;;;;;;5025842;28;20470;-74
2023/01/08 09:33:30;;;;;;;15.50;1.92;;;;;;;;;;5027379;28;20080;-75
2023/01/08 09:35:56;;;;;;;10.68;1.60;;;;;;;;;;5026404;28;20187;-74
2023/01/08 09:38:22;;;;;;;11.55;2.78;;;;;;;;;;5018482;28;21764;-74
2023/01/08 09:40:54;;;;;;;16.77;1.88;;;;;;;;;;5008308;28;20041;-76
2023/01/08 09:43:22;;;;;;;13.85;3.03;;;;;;;;;;5016107;28;21023;-74
2023/01/08 09:46:00;;;;;;;7.72;2.05;;;;;;;;;;5013259;28;20663;-74
2023/01/08 09:48:28;;;;;;;9.57;2.17;;;;;;;;;;5018156;28;20058;-74
2023/01/08 09:50:53;;;;;;;12.13;1.85;;;;;;;;;;5026239;28;20124;-75
2023/01/08 09:53:19;;;;;;;14.05;2.47;;;;;;;;;;5018283;28;20459;-74
2023/01/08 09:55:48;;;;;;;12.38;2.03;;;;;;;;;;5016842;28;20037;-75
2023/01/08 09:58:36;;;;;;;16.02;2.55;;;;;;;;;;5011418;28;20069;-74
2023/01/08 10:01:02;;;;;;;12.25;2.17;;;;;;;;;;5020080;28;20037;-75
2023/01/08 10:03:40;;;;;;;10.75;2.03;;;;;;;;;;5015622;28;20053;-74
2023/01/08 10:06:12;;;;;;;13.82;2.13;;;;;;;;;;5015767;28;20038;-74
2023/01/08 10:08:38;;;;;;;8.02;1.58;;;;;;;;;;5018177;28;20029;-74
2023/01/08 10:11:05;;;;;;;11.27;1.40;;;;;;;;;;5018295;28;20034;-75
2023/01/08 10:13:31;;;;;;;9.40;1.27;;;;;;;;;;5010084;28;20030;-74
2023/01/08 10:15:58;;;;;;;8.18;1.40;;;;;;;;;;5013996;28;20096;-75
2023/01/08 10:18:25;;;;;;;9.40;1.30;;;;;;;;;;5021088;28;20120;-74
2023/01/08 10:20:50;;;;;;;13.95;2.00;;;;;;;;;;5012845;28;20467;-74
2023/01/08 10:23:18;;;;;;;8.63;1.75;;;;;;;;;;5020904;28;20034;-74
2023/01/08 10:25:58;;;;;;;9.88;2.63;;;;;;;;;;5022561;28;20037;-75
2023/01/08 10:28:25;;;;;;;10.35;2.45;;;;;;;;;;4999114;28;20045;-74
2023/01/08 10:30:52;;;;;;;6.57;1.55;;;;;;;;;;5021988;28;20128;-74
2023/01/08 10:33:23;;;;;;;9.05;1.70;;;;;;;;;;5021052;28;20091;-74
2023/01/08 10:35:55;;;;;;;5.47;1.33;;;;;;;;;;5024943;28;20725;-73
2023/01/08 10:38:25;;;;;;;5.90;1.65;;;;;;;;;;5012084;28;20136;-73
2023/01/08 10:40:50;;;;;;;3.33;0.90;;;;;;;;;;5027882;28;20439;-74
2023/01/08 10:43:20;;;;;;;5.05;1.33;;;;;;;;;;5021640;28;20061;-74
2023/01/08 10:45:57;;;;;;;14.38;2.38;;;;;;;;;;5023810;28;20030;-74
2023/01/08 10:48:27;;;;;;;6.47;1.05;;;;;;;;;;5025107;28;20497;-73
2023/01/08 10:51:03;;;;;;;3.30;0.85;;;;;;;;;;5026349;28;20144;-74
2023/01/08 10:53:28;;;;;;;7.13;1.20;;;;;;;;;;5025134;28;20048;-75
2023/01/08 10:56:02;;;;;;;6.43;1.10;;;;;;;;;;5018237;28;20030;-73
2023/01/08 10:58:29;;;;;;;8.27;1.30;;;;;;;;;;5018016;28;20037;-74
2023/01/08 11:00:56;;;;;;;7.72;1.80;;;;;;;;;;5015572;28;20128;-74
2023/01/08 11:03:31;;;;;;;6.35;1.23;;;;;;;;;;5000599;28;20426;-73
2023/01/08 11:05:56;;;;;;;4.95;1.95;;;;;;;;;;5022947;28;20042;-74
2023/01/08 11:08:23;;;;;;;6.32;1.52;;;;;;;;;;5024538;28;20390;-73
2023/01/08 11:10:58;;;;;;;7.03;0.90;;;;;;;;;;5014446;28;20136;-73
2023/01/08 11:13:23;;;;;;;3.47;1.23;;;;;;;;;;5017418;28;20133;-73
2023/01/08 11:16:06;;;;;;;4.32;0.93;;;;;;;;;;5004121;28;20037;-74
2023/01/08 11:18:46;;;;;;;7.13;1.05;;;;;;;;;;5020810;28;20053;-74
2023/01/08 11:21:21;;;;;;;2.00;0.85;;;;;;;;;;5014324;28;20036;-74
2023/01/08 11:23:47;;;;;;;4.85;0.70;;;;;;;;;;5013329;28;20061;-73
2023/01/08 11:26:20;;;;;;;5.32;1.13;;;;;;;;;;5010006;28;20053;-73
2023/01/08 11:28:56;;;;;;;1.98;0.77;;;;;;;;;;5019890;28;20045;-74
2023/01/08 11:31:44;;;;;;;4.80;1.27;;;;;;;;;;5010294;28;20042;-73
2023/01/08 11:34:24;;;;;;;1.50;0.70;;;;;;;;;;5017603;28;20466;-73
2023/01/08 11:36:55;;;;;;;5.78;1.00;;;;;;;;;;5018314;28;20038;-74
2023/01/08 11:39:21;;;;;;;5.20;1.05;;;;;;;;;;5020228;28;20445;-73
2023/01/08 11:42:12;;;;;;;7.90;0.77;;;;;;;;;;5012602;28;20041;-73
2023/01/08 11:44:50;;;;;;;5.60;1.00;;;;;;;;;;5017971;28;20057;-75
2023/01/08 11:47:24;;;;;;;4.30;1.27;;;;;;;;;;5006846;28;20056;-73
2023/01/08 11:50:20;;;;;;;1.95;0.77;;;;;;;;;;5026500;28;20049;-73
2023/01/08 11:53:16;;;;;;;4.43;1.10;;;;;;;;;;5025274;28;20496;-74
2023/01/08 11:55:51;;;;;;;1.92;0.75;;;;;;;;;;5020564;28;20393;-73
2023/01/08 11:58:50;;;;;;;2.17;0.80;;;;;;;;;;5023784;28;20037;-73
2023/01/08 12:01:37;;;;;;;1.98;0.50;;;;;;;;;;5012553;28;20041;-74
2023/01/08 12:04:21;;;;;;;2.30;0.82;;;;;;;;;;5007360;28;20047;-73
2023/01/08 12:06:53;;;;;;;0.63;0.50;;;;;;;;;;5016709;28;20110;-73
2023/01/08 12:09:38;;;;;;;0.98;0.50;;;;;;;;;;5015673;28;20112;-73
2023/01/08 12:12:35;;;;;;;3.08;0.85;;;;;;;;;;5018485;28;20464;-73
2023/01/08 12:15:18;;;;;;;3.78;1.33;;;;;;;;;;5006442;28;20128;-73
2023/01/08 12:18:14;;;;;;;1.80;1.15;;;;;;;;;;5014002;28;20042;-76
2023/01/08 12:20:46;;;;;;;3.70;1.25;;;;;;;;;;5010325;28;20433;-74
2023/01/08 12:23:30;;;;;;;7.30;2.10;;;;;;;;;;5023897;28;20121;-73
2023/01/08 12:26:08;;;;;;;1.92;0.90;;;;;;;;;;5010860;28;20064;-75
2023/01/08 12:28:40;;;;;;;4.18;0.90;;;;;;;;;;5025021;28;20080;-74
2023/01/08 12:31:43;;;;;;;3.00;0.88;;;;;;;;;;5026252;28;20124;-74
2023/01/08 12:34:15;;;;;;;1.52;0.70;;;;;;;;;;5026868;28;20058;-73
2023/01/08 12:36:52;;;;;;;1.35;0.77;;;;;;;;;;5021300;28;20745;-73
2023/01/08 12:39:21;;;;;;;0.22;0.20;;;;;;;;;;5036460;28;20528;-75
2023/01/08 12:41:48;;;;;;;3.75;0.70;;;;;;;;;;5016410;28;20038;-74
2023/01/08 12:44:19;;;;;;;1.75;0.40;;;;;;;;;;4988635;28;20382;-75
2023/01/08 12:46:47;;;;;;;2.25;0.80;;;;;;;;;;5017660;28;20515;-73
2023/01/08 12:49:17;;;;;;;3.60;0.75;;;;;;;;;;5017277;28;20030;-73
2023/01/08 12:52:08;;;;;;;2.80;0.80;;;;;;;;;;5044140;28;20128;-75
2023/01/08 12:54:47;;;;;;;4.43;0.70;;;;;;;;;;5021970;28;20044;-74
2023/01/08 12:57:24;;;;;;;5.82;1.45;;;;;;;;;;5017724;28;20386;-73
2023/01/08 13:00:02;;;;;;;2.10;0.80;;;;;;;;;;5013467;28;20041;-73
2023/01/08 13:02:36;;;;;;;3.28;1.23;;;;;;;;;;5014655;28;20041;-74
2023/01/08 13:05:37;;;;;;;2.95;0.90;;;;;;;;;;5010536;28;20048;-74
2023/01/08 13:08:05;;;;;;;5.30;1.20;;;;;;;;;;5002270;28;20042;-73
2023/01/08 13:10:30;;;;;;;2.55;0.98;;;;;;;;;;5013271;28;20065;-74
2023/01/08 13:12:57;;;;;;;3.10;0.90;;;;;;;;;;5022904;28;20100;-73
2023/01/08 13:15:27;;;;;;;3.67;0.82;;;;;;;;;;5020187;28;20038;-75
2023/01/08 13:17:54;;;;;;;2.70;0.70;;;;;;;;;;5012923;28;20061;-73
2023/01/08 13:20:27;;;;;;;2.95;1.10;;;;;;;;;;5020585;28;20038;-75
2023/01/08 13:22:55;;;;;;;4.70;0.77;;;;;;;;;;5022657;28;20064;-73
2023/01/08 13:25:26;;;;;;;2.50;1.05;;;;;;;;;;5015417;28;20120;-74
2023/01/08 13:27:51;;;;;;;3.65;0.80;;;;;;;;;;5019527;28;20026;-73
2023/01/08 13:30:32;;;;;;;11.40;1.23;;;;;;;;;;5008034;28;20046;-75
2023/01/08 13:32:57;;;;;;;5.53;0.88;;;;;;;;;;5013159;28;20514;-73
2023/01/08 13:35:30;;;;;;;3.47;0.98;;;;;;;;;;5022360;28;20041;-74
2023/01/08 13:38:12;;;;;;;4.45;1.10;;;;;;;;;;5017505;28;20049;-73
2023/01/08 13:40:51;;;;;;;7.65;0.85;;;;;;;;;;5016757;28;20397;-76
2023/01/08 13:43:17;;;;;;;1.02;0.60;;;;;;;;;;5019284;28;20500;-73
2023/01/08 13:45:46;;;;;;;2.45;1.20;;;;;;;;;;5020340;28;20045;-74
2023/01/08 13:48:23;;;;;;;4.20;0.52;;;;;;;;;;5024373;28;20064;-75
2023/01/08 13:50:48;;;;;;;7.28;1.38;;;;;;;;;;5016443;28;20041;-74
2023/01/08 13:53:14;;;;;;;6.40;0.88;;;;;;;;;;5026151;28;20041;-75
2023/01/08 13:55:42;;;;;;;3.45;0.70;;;;;;;;;;5006105;28;20489;-74
2023/01/08 13:58:12;;;;;;;2.88;1.05;;;;;;;;;;5008297;28;20049;-73
2023/01/08 14:00:40;;;;;;;1.88;0.75;;;;;;;;;;4998751;28;20045;-74
2023/01/08 14:03:20;;;;;;;3.83;0.90;;;;;;;;;;5017783;28;20034;-73
2023/01/08 14:05:45;;;;;;;4.05;0.77;;;;;;;;;;5004850;28;20474;-75
2023/01/08 14:08:23;;;;;;;2.05;0.88;;;;;;;;;;5010507;28;20045;-74
2023/01/08 14:10:49;;;;;;;3.17;0.77;;;;;;;;;;5011175;28;20486;-73
2023/01/08 14:13:16;;;;;;;3.95;1.00;;;;;;;;;;5024908;28;20037;-74
2023/01/08 14:15:42;;;;;;;5.43;0.85;;;;;;;;;;5015058;28;20462;-73
2023/01/08 14:18:10;;;;;;;6.03;1.83;;;;;;;;;;5023314;28;20056;-74
2023/01/08 14:20:38;;;;;;;3.08;1.30;;;;;;;;;;5010852;28;20385;-74
2023/01/08 14:23:18;;;;;;;5.97;1.40;;;;;;;;;;5022083;28;20029;-75
2023/01/08 14:25:47;;;;;;;5.07;1.17;;;;;;;;;;5010439;28;20034;-74
2023/01/08 14:28:16;;;;;;;3.45;1.23;;;;;;;;;;5017316;28;20025;-73
2023/01/08 14:30:47;;;;;;;3.17;1.30;;;;;;;;;;5018020;28;20406;-74
2023/01/08 14:33:13;;;;;;;7.65;1.33;;;;;;;;;;5018178;28;20042;-73
2023/01/08 14:35:39;;;;;;;2.70;0.95;;;;;;;;;;5025404;28;20610;-75
2023/01/08 14:38:04;;;;;;;2.83;1.05;;;;;;;;;;5019600;28;20116;-74
2023/01/08 14:40:38;;;;;;;6.90;1.23;;;;;;;;;;5022471;28;20206;-74
2023/01/08 14:43:10;;;;;;;8.00;0.98;;;;;;;;;;5033847;28;20032;-74
2023/01/08 14:45:37;;;;;;;3.00;1.10;;;;;;;;;;5016971;28;20810;-74
2023/01/08 14:48:27;;;;;;;2.33;1.10;;;;;;;;;;5018679;28;20041;-73
2023/01/08 14:51:04;;;;;;;7.35;2.47;;;;;;;;;;5018200;28;20065;-73